Estación Meteorológica Peña el Pijo (Robertgarden) [ 09/30/20 00:34:12 CEST ]

Fecha Hora Presion(HPa) Temp (°C) Humedad % Rocio (°C) Viento ( m/s) Direccion Lluvia 1Hora(mm) Lluvia 24H(mm) LLuvia Total(mm)
2020-Jun-29 04:01:41 1011.300 13.0 65 6.5         48.69
2020-Jun-29 05:01:58 1010.900 12.9 65 6.4         48.69
2020-Jun-29 06:01:47 1011.200 12.4 68 6.6         48.69
2020-Jun-29 07:01:18 1011.300 11.9 72 7.0         48.69
2020-Jun-29 08:01:21 1011.400 14.5 74 9.9         48.69
2020-Jun-29 09:01:17 1011.500 23.9 56 14.6         48.69
2020-Jun-29 10:01:21 1011.200 29.0 40 14.1         48.69
2020-Jun-29 11:01:48 1011.000 33.3 28 12.2         48.69
2020-Jun-29 12:01:48 1011.000 36.3 25 12.9         48.69
2020-Jun-29 13:01:50 1010.900 36.6 20 10.1         48.69
2020-Jun-29 14:01:46 1010.400 36.5 20 10.0         48.69
2020-Jun-29 15:01:51 1009.700 37.2 18 8.6         48.69
2020-Jun-29 16:01:47 1009.300 37.9 19 10.1         48.69
2020-Jun-29 17:01:48 1009.000 37.9 19 10.1         48.69
2020-Jun-29 18:01:45 1009.100 33.8 23 9.6         48.69
2020-Jun-29 19:01:42 1008.700 32.8 24 9.4 0.3 S     48.69
2020-Jun-29 20:01:41 1008.800 31.3 26 9.3         48.69
2020-Jun-29 21:01:34 1009.100 27.9 30 8.7         48.69
2020-Jun-29 22:01:29 1009.500 24.6 38 9.3         48.69
2020-Jun-29 23:01:24 100.100 20.7 46 8.7         48.69

Temperatura Máxima:37°    Temperatura Mínima:11°
Presión Máxima:1011.500 Hpa    Presión Mínima:100.100 Hpa


Volver